createdAt,value
2022-10-13T00:01:00.923Z,10.61
2022-10-13T00:03:29.120Z,10.57
2022-10-13T00:05:57.159Z,10.54
2022-10-13T00:08:26.298Z,10.51
2022-10-13T00:10:54.339Z,10.52
2022-10-13T00:13:22.358Z,10.47
2022-10-13T00:15:51.729Z,10.42
2022-10-13T00:18:20.039Z,10.41
2022-10-13T00:20:49.548Z,10.41
2022-10-13T00:23:18.609Z,10.42
2022-10-13T00:25:48.453Z,10.42
2022-10-13T00:28:17.701Z,10.37
2022-10-13T00:30:46.397Z,10.33
2022-10-13T00:33:15.841Z,10.36
2022-10-13T00:35:45.936Z,10.38
2022-10-13T00:38:14.640Z,10.30
2022-10-13T00:40:47.132Z,10.25
2022-10-13T00:43:20.193Z,10.26
2022-10-13T00:45:50.750Z,10.21
2022-10-13T00:48:22.100Z,10.22
2022-10-13T00:50:50.378Z,10.26
2022-10-13T00:53:20.853Z,10.18
2022-10-13T00:55:49.806Z,10.14
2022-10-13T00:58:19.920Z,10.11
2022-10-13T01:00:50.331Z,10.12
2022-10-13T01:03:21.198Z,10.19
2022-10-13T01:05:50.025Z,10.17
2022-10-13T01:08:19.637Z,10.10
2022-10-13T01:10:57.337Z,10.09
2022-10-13T01:13:35.590Z,10.07
2022-10-13T01:16:10.678Z,10.01
2022-10-13T01:18:46.423Z,9.99
2022-10-13T01:21:26.336Z,10.05
2022-10-13T01:24:15.514Z,10.07
2022-10-13T01:27:20.159Z,10.02
2022-10-13T01:30:16.214Z,10.11
2022-10-13T01:33:11.075Z,10.09
2022-10-13T01:35:58.323Z,10.14
2022-10-13T01:38:35.119Z,10.07
2022-10-13T01:41:11.142Z,10.07
2022-10-13T01:43:43.587Z,10.08
2022-10-13T01:46:17.457Z,10.11
2022-10-13T01:48:46.749Z,10.13
2022-10-13T01:51:23.178Z,10.05
2022-10-13T01:53:53.527Z,10.02
2022-10-13T01:56:21.958Z,9.97
2022-10-13T01:58:52.391Z,9.91
2022-10-13T02:01:39.131Z,9.77
2022-10-13T02:04:16.798Z,9.80
2022-10-13T02:06:49.146Z,9.75
2022-10-13T02:09:25.349Z,9.69
2022-10-13T02:12:00.566Z,9.65
2022-10-13T02:14:32.853Z,9.54
2022-10-13T02:17:06.362Z,9.47
2022-10-13T02:19:37.891Z,9.44
2022-10-13T02:22:07.386Z,9.43
2022-10-13T02:24:36.012Z,9.42
2022-10-13T02:27:05.919Z,9.52
2022-10-13T02:29:34.416Z,9.52
2022-10-13T02:32:03.855Z,9.57
2022-10-13T02:34:32.011Z,9.54
2022-10-13T02:37:00.005Z,9.47
2022-10-13T02:39:28.441Z,9.36
2022-10-13T02:41:56.395Z,9.33
2022-10-13T02:44:24.935Z,9.26
2022-10-13T02:46:52.888Z,9.28
2022-10-13T02:49:22.283Z,9.34
2022-10-13T02:51:51.412Z,9.34
2022-10-13T02:54:19.608Z,9.28
2022-10-13T02:56:47.613Z,9.25
2022-10-13T02:59:15.569Z,9.20
2022-10-13T03:01:44.656Z,9.23
2022-10-13T03:04:13.212Z,9.28
2022-10-13T03:06:42.615Z,9.28
2022-10-13T03:09:10.582Z,9.32
2022-10-13T03:11:39.030Z,9.29
2022-10-13T03:14:07.370Z,9.31
2022-10-13T03:16:35.388Z,9.23
2022-10-13T03:19:03.444Z,9.22
2022-10-13T03:21:31.942Z,9.17
2022-10-13T03:24:01.533Z,9.21
2022-10-13T03:26:29.538Z,9.21
2022-10-13T03:28:57.761Z,9.23
2022-10-13T03:31:26.609Z,9.23
2022-10-13T03:33:54.612Z,9.19
2022-10-13T03:36:22.687Z,9.23
2022-10-13T03:38:50.708Z,9.17
2022-10-13T03:41:20.859Z,9.09
2022-10-13T03:43:49.190Z,9.16
2022-10-13T03:46:19.238Z,9.13
2022-10-13T03:48:48.803Z,9.08
2022-10-13T03:51:20.917Z,9.06
2022-10-13T03:53:50.161Z,9.00
2022-10-13T03:56:21.858Z,9.01
2022-10-13T03:58:53.940Z,8.92
2022-10-13T04:01:22.980Z,9.00
2022-10-13T04:03:51.122Z,9.01
2022-10-13T04:06:19.469Z,8.92
2022-10-13T04:08:47.746Z,8.96
2022-10-13T04:11:17.478Z,8.98
2022-10-13T04:13:47.196Z,9.02
2022-10-13T04:16:17.319Z,9.02
2022-10-13T04:18:46.690Z,9.06
2022-10-13T04:21:16.213Z,9.03
2022-10-13T04:23:44.265Z,9.05
2022-10-13T04:26:18.343Z,9.03
2022-10-13T04:28:49.488Z,9.05
2022-10-13T04:31:17.644Z,9.08
2022-10-13T04:33:45.923Z,9.03
2022-10-13T04:36:15.833Z,8.98
2022-10-13T04:38:44.678Z,8.93
2022-10-13T04:41:13.671Z,8.91
2022-10-13T04:43:41.819Z,8.93
2022-10-13T04:46:16.523Z,8.90
2022-10-13T04:48:44.775Z,8.93
2022-10-13T04:51:14.887Z,8.93
2022-10-13T04:53:43.163Z,8.86
2022-10-13T04:56:12.968Z,8.86
2022-10-13T04:58:42.072Z,8.82
2022-10-13T05:01:18.845Z,8.80
2022-10-13T05:03:52.795Z,8.85
2022-10-13T05:06:22.968Z,9.01
2022-10-13T05:08:51.920Z,9.10
2022-10-13T05:11:20.801Z,9.18
2022-10-13T05:13:49.121Z,9.03
2022-10-13T05:16:19.908Z,9.20
2022-10-13T05:18:48.910Z,9.31
2022-10-13T05:21:19.365Z,9.36
2022-10-13T05:23:54.405Z,9.31
2022-10-13T05:26:24.711Z,9.33
2022-10-13T05:28:52.859Z,9.36
2022-10-13T05:31:24.363Z,9.47
2022-10-13T05:33:53.364Z,9.56
2022-10-13T05:36:23.484Z,9.56
2022-10-13T05:38:53.435Z,9.61
2022-10-13T05:41:22.220Z,9.75
2022-10-13T05:43:50.701Z,9.83
2022-10-13T05:46:18.879Z,9.92
2022-10-13T05:48:48.255Z,9.92
2022-10-13T05:51:20.444Z,9.98
2022-10-13T05:53:56.901Z,10.08
2022-10-13T05:56:31.812Z,10.15
2022-10-13T05:59:03.082Z,10.23
2022-10-13T06:01:34.089Z,10.27
2022-10-13T06:04:10.166Z,10.31
2022-10-13T06:06:38.809Z,10.40
2022-10-13T06:09:07.422Z,10.41
2022-10-13T06:11:35.406Z,10.56
2022-10-13T06:14:03.703Z,10.70
2022-10-13T06:16:31.641Z,10.78
2022-10-13T06:18:59.630Z,10.96
2022-10-13T06:21:29.380Z,11.19
2022-10-13T06:23:57.308Z,11.40
2022-10-13T06:26:25.426Z,11.47
2022-10-13T06:28:58.403Z,11.63
2022-10-13T06:31:28.110Z,11.67
2022-10-13T06:33:56.353Z,11.75
2022-10-13T06:36:24.574Z,11.69
2022-10-13T06:38:54.361Z,11.72
2022-10-13T06:41:22.444Z,11.74
2022-10-13T06:43:50.561Z,11.86
2022-10-13T06:46:18.673Z,11.98
2022-10-13T06:48:46.824Z,12.14
2022-10-13T06:51:15.415Z,12.23
2022-10-13T06:53:44.221Z,12.39
2022-10-13T06:56:14.423Z,12.44
2022-10-13T06:58:44.102Z,12.56
2022-10-13T07:01:15.357Z,12.62
2022-10-13T07:03:44.035Z,12.70
2022-10-13T07:06:16.115Z,12.91
2022-10-13T07:08:44.666Z,13.09
2022-10-13T07:11:17.468Z,13.26
2022-10-13T07:13:46.894Z,13.32
2022-10-13T07:16:15.583Z,13.46
2022-10-13T07:18:44.082Z,13.43
2022-10-13T07:21:12.813Z,13.36
2022-10-13T07:23:40.987Z,13.34
2022-10-13T07:26:10.002Z,13.31
2022-10-13T07:28:40.879Z,13.45
2022-10-13T07:31:12.016Z,13.34
2022-10-13T07:33:40.698Z,13.58
2022-10-13T07:36:11.449Z,13.66
2022-10-13T07:38:40.756Z,13.75
2022-10-13T07:41:11.811Z,13.83
2022-10-13T07:43:43.297Z,13.91
2022-10-13T07:46:14.400Z,13.98
2022-10-13T07:48:43.031Z,14.10
2022-10-13T07:51:13.967Z,14.18
2022-10-13T07:53:45.267Z,14.29
2022-10-13T07:56:15.147Z,14.43
2022-10-13T07:58:46.903Z,14.47
2022-10-13T08:01:16.471Z,14.58
2022-10-13T08:03:49.068Z,14.42
2022-10-13T08:06:18.737Z,14.46
2022-10-13T08:08:46.977Z,14.63
2022-10-13T08:11:17.280Z,14.86
2022-10-13T08:13:50.159Z,15.09
2022-10-13T08:16:18.177Z,15.18
2022-10-13T08:18:46.668Z,15.24
2022-10-13T08:24:06.451Z,15.18
2022-10-13T08:26:34.915Z,15.45
2022-10-13T08:31:53.210Z,15.52
2022-10-13T08:34:22.052Z,15.65
2022-10-13T08:36:53.029Z,15.84
2022-10-13T08:39:22.359Z,15.90
2022-10-13T08:41:51.428Z,15.80
2022-10-13T08:47:22.115Z,15.87
2022-10-13T08:49:50.312Z,16.00
2022-10-13T08:52:22.232Z,16.11
2022-10-13T08:54:51.583Z,16.08
2022-10-13T08:57:22.693Z,16.17
2022-10-13T08:59:54.284Z,16.24
2022-10-13T09:02:25.031Z,16.46
2022-10-13T09:04:54.658Z,16.50
2022-10-13T09:07:26.163Z,16.58
2022-10-13T09:09:55.975Z,16.44
2022-10-13T09:12:25.392Z,16.51
2022-10-13T09:15:05.328Z,16.65
2022-10-13T09:17:34.807Z,16.63
2022-10-13T09:20:07.678Z,16.51
2022-10-13T09:22:37.234Z,16.58
2022-10-13T09:25:21.731Z,16.79
2022-10-13T09:27:52.493Z,16.73
2022-10-13T09:30:32.069Z,16.77
2022-10-13T09:33:16.710Z,16.92
2022-10-13T09:35:47.467Z,17.05
2022-10-13T09:38:18.314Z,16.93
2022-10-13T09:40:58.927Z,17.07
2022-10-13T09:43:31.438Z,17.19
2022-10-13T09:46:02.849Z,17.34
2022-10-13T09:48:33.696Z,17.45
2022-10-13T09:51:02.888Z,17.48
2022-10-13T09:53:35.974Z,17.61
2022-10-13T09:56:18.550Z,17.61
2022-10-13T09:58:52.504Z,17.61
2022-10-13T10:01:27.061Z,17.86
2022-10-13T10:03:56.610Z,17.86
2022-10-13T10:06:27.777Z,17.89
2022-10-13T10:09:04.136Z,18.06
2022-10-13T10:11:36.247Z,18.19
2022-10-13T10:14:17.185Z,18.20
2022-10-13T10:16:51.953Z,18.32
2022-10-13T10:19:26.125Z,18.27
2022-10-13T10:22:04.326Z,17.91
2022-10-13T10:24:42.030Z,18.01
2022-10-13T10:29:56.260Z,18.07
2022-10-13T10:32:34.742Z,18.18
2022-10-13T10:35:11.369Z,18.33
2022-10-13T10:37:54.740Z,18.38
2022-10-13T10:40:36.310Z,18.46
2022-10-13T10:43:42.984Z,18.60
2022-10-13T10:46:18.457Z,18.72
2022-10-13T10:48:50.514Z,18.73
2022-10-13T10:51:19.986Z,18.59
2022-10-13T10:53:57.634Z,18.69
2022-10-13T10:56:33.775Z,18.89
2022-10-13T10:59:24.226Z,18.95
2022-10-13T11:02:03.289Z,19.10
2022-10-13T11:04:43.724Z,19.07
2022-10-13T11:07:16.328Z,19.01
2022-10-13T11:10:03.298Z,18.69
2022-10-13T11:12:50.249Z,18.97
2022-10-13T11:15:24.858Z,18.97
2022-10-13T11:17:53.095Z,18.98
2022-10-13T11:20:58.717Z,19.08
2022-10-13T11:23:34.787Z,19.19
2022-10-13T11:26:33.014Z,19.05
2022-10-13T11:29:01.368Z,19.11
2022-10-13T11:31:49.789Z,19.20
2022-10-13T11:34:31.156Z,19.35
2022-10-13T11:37:02.425Z,19.51
2022-10-13T11:40:01.444Z,19.25
2022-10-13T11:43:05.072Z,19.31
2022-10-13T11:45:56.998Z,19.20
2022-10-13T11:48:54.929Z,19.26
2022-10-13T11:51:32.374Z,19.36
2022-10-13T11:54:13.415Z,19.48
2022-10-13T11:56:49.121Z,19.54
2022-10-13T11:59:23.143Z,19.67
2022-10-13T12:01:57.128Z,19.58
2022-10-13T12:04:27.370Z,19.46
2022-10-13T12:06:59.377Z,19.44
2022-10-13T12:09:31.543Z,19.40
2022-10-13T12:12:02.913Z,19.43
2022-10-13T12:14:40.203Z,19.52
2022-10-13T12:17:23.734Z,19.67
2022-10-13T12:19:54.968Z,19.72
2022-10-13T12:22:23.164Z,19.82
2022-10-13T12:25:03.615Z,19.81
2022-10-13T12:27:33.823Z,19.77
2022-10-13T12:30:02.803Z,19.74
2022-10-13T12:32:33.911Z,19.76
2022-10-13T12:35:17.203Z,19.87
2022-10-13T12:37:45.932Z,19.88
2022-10-13T12:40:18.664Z,19.90
2022-10-13T12:42:47.593Z,19.99
2022-10-13T12:45:18.871Z,20.04
2022-10-13T12:47:52.280Z,20.05
2022-10-13T12:50:40.084Z,20.09
2022-10-13T12:53:20.006Z,20.11
2022-10-13T12:55:58.705Z,20.13
2022-10-13T12:58:30.331Z,20.11
2022-10-13T13:01:17.663Z,20.20
2022-10-13T13:03:46.175Z,20.05
2022-10-13T13:06:28.466Z,20.03
2022-10-13T13:09:30.612Z,20.04
2022-10-13T13:12:27.594Z,20.15
2022-10-13T13:14:56.648Z,20.15
2022-10-13T13:17:53.335Z,20.21
2022-10-13T13:20:26.253Z,20.12
2022-10-13T13:22:54.396Z,20.13
2022-10-13T13:25:22.514Z,20.14
2022-10-13T13:27:53.692Z,20.19
2022-10-13T13:30:23.569Z,20.15
2022-10-13T13:32:52.063Z,20.25
2022-10-13T13:35:20.531Z,20.19
2022-10-13T13:37:51.018Z,20.17
2022-10-13T13:40:22.797Z,20.21
2022-10-13T13:42:52.437Z,20.14
2022-10-13T13:45:22.613Z,20.15
2022-10-13T13:47:51.132Z,20.07
2022-10-13T13:50:23.581Z,20.09
2022-10-13T13:52:52.044Z,20.05
2022-10-13T13:55:20.217Z,20.06
2022-10-13T13:57:48.579Z,20.05
2022-10-13T14:00:19.688Z,20.12
2022-10-13T14:02:48.097Z,20.09
2022-10-13T14:05:18.635Z,20.02
2022-10-13T14:07:46.555Z,19.98
2022-10-13T14:10:14.787Z,20.01
2022-10-13T14:12:43.441Z,20.07
2022-10-13T14:15:12.546Z,20.09
2022-10-13T14:17:42.997Z,20.08
2022-10-13T14:20:13.213Z,20.09
2022-10-13T14:22:41.541Z,20.05
2022-10-13T14:25:10.872Z,20.03
2022-10-13T14:27:38.876Z,20.01
2022-10-13T14:30:08.089Z,19.97
2022-10-13T14:32:39.806Z,19.94
2022-10-13T14:35:09.917Z,19.89
2022-10-13T14:37:38.194Z,19.88
2022-10-13T14:40:07.505Z,19.73
2022-10-13T14:42:35.484Z,19.72
2022-10-13T14:45:03.576Z,19.67
2022-10-13T14:47:31.650Z,19.64
2022-10-13T14:50:01.317Z,19.55
2022-10-13T14:52:30.918Z,19.55
2022-10-13T14:54:58.953Z,19.52
2022-10-13T14:57:27.424Z,19.54
2022-10-13T15:00:00.888Z,19.49
2022-10-13T15:02:30.015Z,19.42
2022-10-13T15:04:58.192Z,19.37
2022-10-13T15:07:27.910Z,19.24
2022-10-13T15:10:06.386Z,19.12
2022-10-13T15:12:36.508Z,19.16
2022-10-13T15:15:06.317Z,19.11
2022-10-13T15:17:36.854Z,19.07
2022-10-13T15:20:05.579Z,19.04
2022-10-13T15:22:33.814Z,18.94
2022-10-13T15:25:04.620Z,18.91
2022-10-13T15:27:32.667Z,18.85
2022-10-13T15:30:00.866Z,18.80
2022-10-13T15:32:29.378Z,18.74
2022-10-13T15:34:57.423Z,18.72
2022-10-13T15:37:25.705Z,18.68
2022-10-13T15:39:57.445Z,18.61
2022-10-13T15:42:27.389Z,18.58
2022-10-13T15:45:11.539Z,18.57
2022-10-13T15:47:40.492Z,18.44
2022-10-13T15:50:10.094Z,18.34
2022-10-13T15:52:41.462Z,18.21
2022-10-13T15:55:10.158Z,18.23
2022-10-13T15:57:40.055Z,18.19
2022-10-13T16:00:10.380Z,18.20
2022-10-13T16:02:38.357Z,18.08
2022-10-13T16:05:07.873Z,18.00
2022-10-13T16:07:36.160Z,17.97
2022-10-13T16:10:04.404Z,17.90
2022-10-13T16:12:33.208Z,17.93
2022-10-13T16:15:02.668Z,17.82
2022-10-13T16:17:30.767Z,17.75
2022-10-13T16:19:58.817Z,17.69
2022-10-13T16:22:27.665Z,17.66
2022-10-13T16:24:56.346Z,17.63
2022-10-13T16:27:24.764Z,17.49
2022-10-13T16:29:52.982Z,17.34
2022-10-13T16:32:23.326Z,17.18
2022-10-13T16:34:51.486Z,17.08
2022-10-13T16:37:19.901Z,16.97
2022-10-13T16:39:51.657Z,16.86
2022-10-13T16:42:20.627Z,16.75
2022-10-13T16:44:48.783Z,16.64
2022-10-13T16:47:18.677Z,16.55
2022-10-13T16:49:48.751Z,16.48
2022-10-13T16:52:16.946Z,16.43
2022-10-13T16:54:45.079Z,16.44
2022-10-13T16:57:13.637Z,16.40
2022-10-13T16:59:42.115Z,16.37
2022-10-13T17:02:15.459Z,16.36
2022-10-13T17:04:47.954Z,16.35
2022-10-13T17:07:17.914Z,16.28
2022-10-13T17:09:46.331Z,16.28
2022-10-13T17:12:14.917Z,16.25
2022-10-13T17:14:43.362Z,16.19
2022-10-13T17:17:13.955Z,16.21
2022-10-13T17:19:42.219Z,16.15
2022-10-13T17:22:10.275Z,16.13
2022-10-13T17:24:42.958Z,16.05
2022-10-13T17:27:11.700Z,15.95
2022-10-13T17:29:39.765Z,15.87
2022-10-13T17:32:08.052Z,15.77
2022-10-13T17:34:37.484Z,15.73
2022-10-13T17:37:14.579Z,15.71
2022-10-13T17:39:45.555Z,15.67
2022-10-13T17:42:13.685Z,15.68
2022-10-13T17:44:42.843Z,15.60
2022-10-13T17:47:11.064Z,15.57
2022-10-13T17:49:40.254Z,15.53
2022-10-13T17:52:08.421Z,15.50
2022-10-13T17:54:36.444Z,15.44
2022-10-13T17:57:06.135Z,15.39
2022-10-13T17:59:34.131Z,15.35
2022-10-13T18:02:02.432Z,15.30
2022-10-13T18:04:30.999Z,15.27
2022-10-13T18:09:45.034Z,15.20
2022-10-13T18:12:14.503Z,15.12
2022-10-13T18:14:42.836Z,15.07
2022-10-13T18:17:11.116Z,15.02
2022-10-13T18:19:40.503Z,14.98
2022-10-13T18:22:08.671Z,14.92
2022-10-13T18:24:36.729Z,14.87
2022-10-13T18:27:05.946Z,14.80
2022-10-13T18:29:36.571Z,14.72
2022-10-13T18:32:06.092Z,14.67
2022-10-13T18:34:34.558Z,14.66
2022-10-13T18:37:02.610Z,14.61
2022-10-13T18:39:31.121Z,14.65
2022-10-13T18:41:59.575Z,14.57
2022-10-13T18:44:27.618Z,14.54
2022-10-13T18:46:57.477Z,14.59
2022-10-13T18:49:31.089Z,14.53
2022-10-13T18:52:00.015Z,14.53
2022-10-13T18:54:30.269Z,14.51
2022-10-13T18:56:59.289Z,14.53
2022-10-13T18:59:27.388Z,14.43
2022-10-13T19:01:57.446Z,14.43
2022-10-13T19:04:26.887Z,14.32
2022-10-13T19:06:54.887Z,14.26
2022-10-13T19:09:24.997Z,14.22
2022-10-13T19:11:53.193Z,14.34
2022-10-13T19:14:21.245Z,14.22
2022-10-13T19:16:49.284Z,14.20
2022-10-13T19:19:18.855Z,14.13
2022-10-13T19:21:46.836Z,14.12
2022-10-13T19:24:15.405Z,14.09
2022-10-13T19:26:43.442Z,14.05
2022-10-13T19:29:15.670Z,14.04
2022-10-13T19:31:44.205Z,14.12
2022-10-13T19:34:13.645Z,14.16
2022-10-13T19:36:44.820Z,14.04
2022-10-13T19:39:16.304Z,13.95
2022-10-13T19:41:45.302Z,13.84
2022-10-13T19:44:13.594Z,13.73
2022-10-13T19:46:42.376Z,13.71
2022-10-13T19:49:11.612Z,13.73
2022-10-13T19:51:42.957Z,13.70
2022-10-13T19:54:11.341Z,13.65
2022-10-13T19:56:39.528Z,13.66
2022-10-13T19:59:07.581Z,13.67
2022-10-13T20:01:39.999Z,13.63
2022-10-13T20:04:08.629Z,13.70
2022-10-13T20:06:37.161Z,13.73
2022-10-13T20:09:07.293Z,13.80
2022-10-13T20:11:36.176Z,13.82
2022-10-13T20:14:04.211Z,13.78
2022-10-13T20:16:32.422Z,13.90
2022-10-13T20:19:01.706Z,13.85
2022-10-13T20:21:30.418Z,13.93
2022-10-13T20:23:58.734Z,13.96
2022-10-13T20:26:28.411Z,14.02
2022-10-13T20:28:58.254Z,14.07
2022-10-13T20:31:27.146Z,14.05
2022-10-13T20:33:56.251Z,14.03
2022-10-13T20:36:26.896Z,13.89
2022-10-13T20:38:55.627Z,13.82
2022-10-13T20:41:25.634Z,13.81
2022-10-13T20:43:57.850Z,13.65
2022-10-13T20:46:26.265Z,13.66
2022-10-13T20:49:10.316Z,13.66
2022-10-13T20:51:38.858Z,13.67
2022-10-13T20:54:07.709Z,13.68
2022-10-13T20:56:35.895Z,13.65
2022-10-13T20:59:10.460Z,13.69
2022-10-13T21:01:39.096Z,13.65
2022-10-13T21:04:07.200Z,13.63
2022-10-13T21:06:36.033Z,13.66
2022-10-13T21:09:05.433Z,13.63
2022-10-13T21:11:33.403Z,13.71
2022-10-13T21:14:03.019Z,13.70
2022-10-13T21:16:32.517Z,13.69
2022-10-13T21:19:00.884Z,13.66
2022-10-13T21:21:31.953Z,13.68
2022-10-13T21:24:01.771Z,13.76
2022-10-13T21:26:31.504Z,13.65
2022-10-13T21:28:59.811Z,13.58
2022-10-13T21:31:28.286Z,13.56
2022-10-13T21:33:59.008Z,13.52
2022-10-13T21:36:29.292Z,13.46
2022-10-13T21:38:59.395Z,13.40
2022-10-13T21:41:28.881Z,13.27
2022-10-13T21:43:57.575Z,13.29
2022-10-13T21:46:28.544Z,13.27
2022-10-13T21:48:59.957Z,13.23
2022-10-13T21:51:30.420Z,13.24
2022-10-13T21:54:02.417Z,13.19
2022-10-13T21:56:33.785Z,13.18
2022-10-13T21:59:02.273Z,13.21
2022-10-13T22:01:30.804Z,13.08
2022-10-13T22:04:02.265Z,12.98
2022-10-13T22:06:32.057Z,12.94
2022-10-13T22:09:01.769Z,12.87
2022-10-13T22:11:31.728Z,12.84
2022-10-13T22:14:00.449Z,12.77
2022-10-13T22:16:30.471Z,12.69
2022-10-13T22:19:00.092Z,12.80
2022-10-13T22:21:30.001Z,12.77
2022-10-13T22:23:59.484Z,12.77
2022-10-13T22:26:29.688Z,12.67
2022-10-13T22:28:58.221Z,12.61
2022-10-13T22:31:26.684Z,12.58
2022-10-13T22:33:55.286Z,12.57
2022-10-13T22:36:26.321Z,12.59
2022-10-13T22:38:58.132Z,12.57
2022-10-13T22:41:26.417Z,12.51
2022-10-13T22:43:56.669Z,12.56
2022-10-13T22:46:27.615Z,12.45
2022-10-13T22:48:56.334Z,12.54
2022-10-13T22:51:27.907Z,12.49
2022-10-13T22:53:56.587Z,12.48
2022-10-13T22:56:26.201Z,12.56
2022-10-13T22:58:55.969Z,12.58
2022-10-13T23:01:26.079Z,12.62
2022-10-13T23:03:57.318Z,12.57
2022-10-13T23:06:28.196Z,12.60
2022-10-13T23:08:56.993Z,12.59
2022-10-13T23:11:24.972Z,12.47
2022-10-13T23:13:53.087Z,12.50
2022-10-13T23:16:23.770Z,12.46
2022-10-13T23:18:52.567Z,12.49
2022-10-13T23:21:24.567Z,12.45
2022-10-13T23:23:57.351Z,12.45
2022-10-13T23:26:25.688Z,12.30
2022-10-13T23:28:53.798Z,12.22
2022-10-13T23:31:22.124Z,12.28
2022-10-13T23:33:50.129Z,12.30
2022-10-13T23:36:21.510Z,12.24
2022-10-13T23:38:50.253Z,12.22
2022-10-13T23:41:19.733Z,12.21
2022-10-13T23:43:47.709Z,12.26
2022-10-13T23:46:15.763Z,12.33
2022-10-13T23:48:44.575Z,12.27
2022-10-13T23:51:15.199Z,12.28
2022-10-13T23:53:45.328Z,12.26
2022-10-13T23:56:14.199Z,12.21
2022-10-13T23:58:44.973Z,12.08
